createdAt,value
2019-01-03T00:02:01.273Z,73.63
2019-01-03T00:04:48.818Z,73.80
2019-01-03T00:07:52.662Z,73.91
2019-01-03T00:10:56.639Z,73.89
2019-01-03T00:13:48.362Z,73.95
2019-01-03T00:16:35.570Z,73.97
2019-01-03T00:19:30.285Z,73.96
2019-01-03T00:22:16.993Z,74.01
2019-01-03T00:25:05.705Z,74.03
2019-01-03T00:28:01.389Z,74.16
2019-01-03T00:30:53.695Z,74.18
2019-01-03T00:34:01.345Z,74.18
2019-01-03T00:37:05.038Z,74.29
2019-01-03T00:40:11.767Z,74.30
2019-01-03T00:43:00.553Z,74.34
2019-01-03T00:45:55.240Z,74.37
2019-01-03T00:48:44.184Z,74.39
2019-01-03T00:51:31.800Z,74.35
2019-01-03T00:54:19.440Z,74.50
2019-01-03T00:57:06.583Z,74.41
2019-01-03T00:59:53.718Z,74.39
2019-01-03T01:02:51.965Z,74.28
2019-01-03T01:05:39.320Z,74.40
2019-01-03T01:08:34.472Z,74.44
2019-01-03T01:11:22.548Z,74.32
2019-01-03T01:14:19.714Z,74.32
2019-01-03T01:17:17.542Z,74.42
2019-01-03T01:20:01.485Z,74.29
2019-01-03T01:22:53.010Z,74.39
2019-01-03T01:25:42.348Z,74.39
2019-01-03T01:28:25.353Z,74.29
2019-01-03T01:31:25.969Z,74.43
2019-01-03T01:34:11.637Z,74.38
2019-01-03T01:36:58.895Z,74.39
2019-01-03T01:39:50.621Z,74.43
2019-01-03T01:42:38.200Z,74.34
2019-01-03T01:45:21.115Z,74.45
2019-01-03T01:48:08.246Z,74.45
2019-01-03T01:50:56.343Z,74.44
2019-01-03T01:53:43.726Z,74.46
2019-01-03T01:56:32.432Z,74.51
2019-01-03T01:59:31.091Z,74.47
2019-01-03T02:02:18.234Z,74.39
2019-01-03T02:05:09.784Z,74.35
2019-01-03T02:07:58.632Z,74.39
2019-01-03T02:11:01.122Z,74.41
2019-01-03T02:13:48.550Z,74.56
2019-01-03T02:16:44.301Z,74.58
2019-01-03T02:19:39.007Z,74.52
2019-01-03T02:22:26.421Z,74.43
2019-01-03T02:25:14.110Z,74.51
2019-01-03T02:27:55.491Z,74.59
2019-01-03T02:30:39.032Z,74.67
2019-01-03T02:33:26.114Z,74.76
2019-01-03T02:36:13.609Z,74.95
2019-01-03T02:39:00.989Z,75.06
2019-01-03T02:42:09.408Z,75.27
2019-01-03T02:45:03.472Z,75.45
2019-01-03T02:47:51.085Z,75.45
2019-01-03T02:50:37.931Z,75.68
2019-01-03T02:53:41.801Z,75.66
2019-01-03T02:56:28.180Z,75.79
2019-01-03T02:59:21.379Z,75.89
2019-01-03T03:02:11.397Z,76.08
2019-01-03T03:05:10.884Z,76.24
2019-01-03T03:08:05.341Z,76.40
2019-01-03T03:10:52.706Z,76.37
2019-01-03T03:13:37.124Z,76.38
2019-01-03T03:16:25.818Z,76.40
2019-01-03T03:19:05.627Z,76.49
2019-01-03T03:21:54.303Z,76.60
2019-01-03T03:24:57.957Z,76.63
2019-01-03T03:27:40.897Z,76.72
2019-01-03T03:30:44.339Z,76.62
2019-01-03T03:33:48.092Z,76.59
2019-01-03T03:36:45.571Z,76.49
2019-01-03T03:39:40.680Z,76.44
2019-01-03T03:42:35.533Z,76.36
2019-01-03T03:45:17.495Z,76.43
2019-01-03T03:47:58.411Z,76.61
2019-01-03T03:50:45.823Z,76.52
2019-01-03T03:53:39.126Z,76.51
2019-01-03T03:56:21.681Z,76.51
2019-01-03T03:59:08.962Z,76.45
2019-01-03T04:02:02.541Z,76.37
2019-01-03T04:04:56.994Z,76.42
2019-01-03T04:07:37.859Z,76.36
2019-01-03T04:10:25.187Z,76.40
2019-01-03T04:13:13.893Z,76.53
2019-01-03T04:16:04.628Z,77.05
2019-01-03T04:18:53.275Z,77.56
2019-01-03T04:21:48.010Z,77.98
2019-01-03T04:24:30.912Z,78.12
2019-01-03T04:27:28.770Z,78.50
2019-01-03T04:30:23.828Z,78.87
2019-01-03T04:33:11.995Z,78.96
2019-01-03T04:36:15.815Z,79.10
2019-01-03T04:39:02.537Z,79.18
2019-01-03T04:42:00.301Z,79.26
2019-01-03T04:44:42.781Z,79.47
2019-01-03T04:47:36.423Z,79.60
2019-01-03T04:50:23.820Z,79.73
2019-01-03T04:53:11.217Z,80.00
2019-01-03T04:55:58.383Z,80.17
2019-01-03T04:58:39.269Z,80.45
2019-01-03T05:02:02.657Z,80.44
2019-01-03T05:04:49.915Z,80.35
2019-01-03T05:07:42.764Z,80.35
2019-01-03T05:10:23.680Z,80.45
2019-01-03T05:13:21.440Z,80.35
2019-01-03T05:16:10.147Z,80.38
2019-01-03T05:18:57.436Z,80.35
2019-01-03T05:21:44.576Z,80.20
2019-01-03T05:24:31.657Z,80.23
2019-01-03T05:27:34.257Z,80.29
2019-01-03T05:30:36.037Z,80.39
2019-01-03T05:33:27.551Z,80.42
2019-01-03T05:36:14.927Z,80.42
2019-01-03T05:39:13.965Z,80.63
2019-01-03T05:41:51.740Z,80.70
2019-01-03T05:44:35.898Z,80.47
2019-01-03T05:47:24.604Z,79.99
2019-01-03T05:50:13.291Z,79.87
2019-01-03T05:52:55.261Z,79.98
2019-01-03T05:55:49.727Z,80.25
2019-01-03T05:58:44.244Z,80.58
2019-01-03T06:01:38.824Z,81.01
2019-01-03T06:04:34.615Z,81.02
2019-01-03T06:07:30.031Z,80.90
2019-01-03T06:10:17.391Z,80.88
2019-01-03T06:13:12.161Z,80.78
2019-01-03T06:16:06.166Z,80.78
2019-01-03T06:19:12.867Z,80.67
2019-01-03T06:22:01.625Z,80.66
2019-01-03T06:24:44.935Z,80.62
2019-01-03T06:27:32.314Z,80.55
2019-01-03T06:30:20.043Z,80.47
2019-01-03T06:36:04.483Z,80.56
2019-01-03T06:38:47.483Z,80.54
2019-01-03T06:41:33.913Z,80.65
2019-01-03T06:44:34.466Z,80.62
2019-01-03T06:47:29.865Z,80.84
2019-01-03T06:50:26.302Z,80.90
2019-01-03T06:53:21.029Z,80.90
2019-01-03T06:56:09.733Z,80.94
2019-01-03T06:58:56.635Z,80.88
2019-01-03T07:01:33.599Z,80.80
2019-01-03T07:04:22.544Z,80.85
2019-01-03T07:07:10.076Z,81.02
2019-01-03T07:10:10.867Z,80.95
2019-01-03T07:13:05.366Z,81.01
2019-01-03T07:16:01.284Z,80.92
2019-01-03T07:18:48.366Z,81.01
2019-01-03T07:21:37.323Z,80.98
2019-01-03T07:24:36.371Z,80.87
2019-01-03T07:27:37.248Z,80.82
2019-01-03T07:30:38.166Z,80.77
2019-01-03T07:33:25.356Z,80.73
2019-01-03T07:36:24.551Z,80.71
2019-01-03T07:39:27.324Z,80.64
2019-01-03T07:42:24.511Z,80.46
2019-01-03T07:45:12.331Z,80.40
2019-01-03T07:48:02.896Z,80.32
2019-01-03T07:50:50.413Z,80.38
2019-01-03T07:53:37.720Z,80.38
2019-01-03T07:56:25.147Z,80.17
2019-01-03T07:59:12.469Z,80.25
2019-01-03T08:02:01.179Z,79.81
2019-01-03T08:04:57.528Z,79.81
2019-01-03T08:07:55.412Z,79.92
2019-01-03T08:10:42.676Z,79.68
2019-01-03T08:13:29.826Z,79.74
2019-01-03T08:16:26.764Z,79.82
2019-01-03T08:19:13.950Z,79.71
2019-01-03T08:22:06.380Z,79.68
2019-01-03T08:24:55.083Z,79.81
2019-01-03T08:27:41.377Z,79.76
2019-01-03T08:30:30.155Z,79.67
2019-01-03T08:33:17.602Z,79.75
2019-01-03T08:36:12.239Z,79.78
2019-01-03T08:38:59.337Z,79.72
2019-01-03T08:42:02.977Z,79.60
2019-01-03T08:44:50.575Z,79.66
2019-01-03T08:47:44.403Z,79.67
2019-01-03T08:50:26.331Z,79.68
2019-01-03T08:53:29.453Z,79.25
2019-01-03T08:56:33.348Z,79.36
2019-01-03T08:59:19.559Z,79.45
2019-01-03T09:02:03.892Z,79.37
2019-01-03T09:04:52.855Z,79.21
2019-01-03T09:07:39.991Z,79.23
2019-01-03T09:10:28.771Z,79.17
2019-01-03T09:13:11.241Z,79.00
2019-01-03T09:15:58.214Z,78.81
2019-01-03T09:18:49.667Z,78.86
2019-01-03T09:21:37.049Z,78.76
2019-01-03T09:24:27.329Z,78.83
2019-01-03T09:27:17.296Z,78.74
2019-01-03T09:30:01.684Z,78.80
2019-01-03T09:32:48.885Z,78.51
2019-01-03T09:35:36.393Z,78.35
2019-01-03T09:38:37.125Z,78.24
2019-01-03T09:41:43.733Z,77.93
2019-01-03T09:44:26.810Z,77.70
2019-01-03T09:46:56.474Z,77.76
2019-01-03T09:49:26.363Z,77.96
2019-01-03T09:51:56.086Z,77.97
2019-01-03T09:54:26.020Z,77.73
2019-01-03T09:56:59.158Z,77.58
2019-01-03T09:59:28.937Z,77.58
2019-01-03T10:01:58.582Z,77.64
2019-01-03T10:04:28.334Z,77.72
2019-01-03T10:06:57.975Z,77.73
2019-01-03T10:09:27.634Z,77.70
2019-01-03T10:11:57.371Z,77.65
2019-01-03T10:14:27.039Z,77.47
2019-01-03T10:16:56.708Z,77.21
2019-01-03T10:19:26.443Z,77.29
2019-01-03T10:21:56.186Z,77.09
2019-01-03T10:24:25.858Z,76.49
2019-01-03T10:26:55.532Z,76.87
2019-01-03T10:29:25.195Z,76.58
2019-01-03T10:31:54.857Z,76.28
2019-01-03T10:34:24.525Z,76.20
2019-01-03T10:36:54.254Z,76.30
2019-01-03T10:39:23.915Z,76.16
2019-01-03T10:41:53.587Z,76.14
2019-01-03T10:44:23.234Z,75.95
2019-01-03T10:46:52.989Z,75.99
2019-01-03T10:49:22.889Z,75.67
2019-01-03T10:51:53.602Z,75.79
2019-01-03T10:54:23.246Z,75.67
2019-01-03T10:56:52.918Z,75.62
2019-01-03T10:59:22.991Z,75.33
2019-01-03T11:01:52.652Z,75.18
2019-01-03T11:04:22.313Z,75.16
2019-01-03T11:06:52.216Z,75.05
2019-01-03T11:09:21.882Z,75.40
2019-01-03T11:11:51.542Z,75.38
2019-01-03T11:14:21.276Z,75.07
2019-01-03T11:16:50.893Z,75.25
2019-01-03T11:19:20.606Z,74.83
2019-01-03T11:21:50.217Z,75.07
2019-01-03T11:24:19.879Z,74.94
2019-01-03T11:26:49.540Z,74.94
2019-01-03T11:29:19.207Z,75.27
2019-01-03T11:31:49.119Z,75.29
2019-01-03T11:34:18.799Z,74.79
2019-01-03T11:36:48.454Z,74.93
2019-01-03T11:39:18.111Z,74.83
2019-01-03T11:41:47.772Z,74.78
2019-01-03T11:44:18.527Z,74.82
2019-01-03T11:46:48.178Z,74.22
2019-01-03T11:49:17.849Z,74.07
2019-01-03T11:51:47.741Z,74.20
2019-01-03T11:54:17.421Z,73.96
2019-01-03T11:56:47.084Z,73.64
2019-01-03T11:59:16.993Z,73.74
2019-01-03T12:01:46.659Z,73.79
2019-01-03T12:04:16.327Z,73.83
2019-01-03T12:06:46.008Z,73.96
2019-01-03T12:09:15.667Z,73.43
2019-01-03T12:11:45.334Z,73.47
2019-01-03T12:14:14.996Z,73.58
2019-01-03T12:16:44.911Z,73.55
2019-01-03T12:19:14.576Z,73.81
2019-01-03T12:21:45.498Z,74.16
2019-01-03T12:24:15.255Z,74.05
2019-01-03T12:26:45.167Z,74.27
2019-01-03T12:29:14.841Z,74.63
2019-01-03T12:31:44.510Z,74.37
2019-01-03T12:34:14.186Z,73.83
2019-01-03T12:36:43.860Z,73.97
2019-01-03T12:39:13.531Z,74.36
2019-01-03T12:41:43.187Z,73.66
2019-01-03T12:44:12.836Z,73.74
2019-01-03T12:46:42.504Z,73.69
2019-01-03T12:49:12.155Z,73.55
2019-01-03T12:51:42.134Z,73.60
2019-01-03T12:54:11.836Z,73.90
2019-01-03T12:56:42.477Z,73.64
2019-01-03T12:59:12.166Z,73.65
2019-01-03T13:01:41.818Z,73.63
2019-01-03T13:04:11.486Z,72.93
2019-01-03T13:06:41.146Z,72.82
2019-01-03T13:09:17.161Z,72.86
2019-01-03T13:11:47.370Z,72.63
2019-01-03T13:14:17.115Z,72.29
2019-01-03T13:16:46.810Z,72.12
2019-01-03T13:19:17.115Z,72.16
2019-01-03T13:21:46.779Z,71.90
2019-01-03T13:24:16.455Z,71.61
2019-01-03T13:26:46.115Z,71.82
2019-01-03T13:29:15.791Z,71.67
2019-01-03T13:31:45.482Z,72.07
2019-01-03T13:34:15.158Z,72.16
2019-01-03T13:36:49.633Z,71.94
2019-01-03T13:39:19.539Z,71.89
2019-01-03T13:41:49.218Z,72.14
2019-01-03T13:44:18.882Z,72.09
2019-01-03T13:46:48.530Z,71.95
2019-01-03T13:49:18.284Z,71.78
2019-01-03T13:51:47.946Z,71.75
2019-01-03T13:54:17.606Z,71.80
2019-01-03T13:56:47.284Z,71.72
2019-01-03T13:59:16.940Z,71.30
2019-01-03T14:01:47.583Z,71.55
2019-01-03T14:04:17.243Z,71.67
2019-01-03T14:06:46.911Z,71.24
2019-01-03T14:09:16.586Z,71.56
2019-01-03T14:11:46.245Z,71.65
2019-01-03T14:14:16.002Z,71.76
2019-01-03T14:16:45.735Z,71.90
2019-01-03T14:19:15.394Z,71.95
2019-01-03T14:21:45.053Z,71.86
2019-01-03T14:24:14.703Z,71.94
2019-01-03T14:26:44.355Z,71.81
2019-01-03T14:29:14.017Z,71.96
2019-01-03T14:31:44.081Z,71.86
2019-01-03T14:34:13.721Z,71.66
2019-01-03T14:36:43.380Z,71.73
2019-01-03T14:39:13.043Z,71.43
2019-01-03T14:41:42.706Z,71.87
2019-01-03T14:44:12.444Z,71.91
2019-01-03T14:46:42.110Z,72.11
2019-01-03T14:49:11.789Z,72.29
2019-01-03T14:51:41.491Z,72.23
2019-01-03T14:54:11.401Z,72.25
2019-01-03T14:56:41.062Z,72.59
2019-01-03T14:59:10.722Z,72.52
2019-01-03T15:01:40.642Z,72.73
2019-01-03T15:04:10.309Z,72.70
2019-01-03T15:06:39.986Z,72.71
2019-01-03T15:09:09.656Z,72.78
2019-01-03T15:11:39.329Z,72.79
2019-01-03T15:14:08.994Z,72.93
2019-01-03T15:16:38.663Z,72.93
2019-01-03T15:19:08.331Z,73.03
2019-01-03T15:21:38.000Z,73.07
2019-01-03T15:24:07.659Z,73.27
2019-01-03T15:26:37.564Z,73.36
2019-01-03T15:29:07.481Z,73.32
2019-01-03T15:31:37.142Z,73.34
2019-01-03T15:34:06.808Z,73.35
2019-01-03T15:36:36.468Z,73.45
2019-01-03T15:39:06.496Z,73.57
2019-01-03T15:41:36.443Z,73.65
2019-01-03T15:44:06.106Z,73.87
2019-01-03T15:46:35.767Z,73.89
2019-01-03T15:49:05.429Z,73.97
2019-01-03T15:51:35.137Z,74.11
2019-01-03T15:54:05.499Z,74.12
2019-01-03T15:56:35.167Z,74.24
2019-01-03T15:59:05.097Z,74.28
2019-01-03T16:01:34.777Z,74.27
2019-01-03T16:04:04.438Z,74.27
2019-01-03T16:06:34.109Z,74.24
2019-01-03T16:09:05.475Z,74.10
2019-01-03T16:11:35.203Z,74.12
2019-01-03T16:14:05.098Z,74.18
2019-01-03T16:16:34.840Z,74.29
2019-01-03T16:19:05.455Z,74.37
2019-01-03T16:21:35.120Z,74.25
2019-01-03T16:24:05.412Z,74.36
2019-01-03T16:26:35.124Z,74.27
2019-01-03T16:29:05.722Z,74.31
2019-01-03T16:34:19.955Z,74.60
2019-01-03T16:36:49.653Z,74.55
2019-01-03T16:39:19.397Z,74.69
2019-01-03T16:41:49.083Z,74.90
2019-01-03T16:44:18.752Z,74.45
2019-01-03T16:46:48.420Z,74.46
2019-01-03T16:49:18.091Z,74.81
2019-01-03T16:51:47.845Z,74.90
2019-01-03T16:54:17.522Z,75.12
2019-01-03T16:56:47.207Z,75.27
2019-01-03T16:59:16.876Z,75.25
2019-01-03T17:01:46.616Z,75.50
2019-01-03T17:04:16.541Z,75.50
2019-01-03T17:06:46.231Z,75.64
2019-01-03T17:09:15.921Z,75.64
2019-01-03T17:11:45.596Z,75.72
2019-01-03T17:14:15.259Z,75.67
2019-01-03T17:16:45.507Z,75.69
2019-01-03T17:19:22.360Z,75.70
2019-01-03T17:21:52.047Z,75.78
2019-01-03T17:24:21.714Z,75.79
2019-01-03T17:26:51.385Z,75.15
2019-01-03T17:29:21.052Z,75.18
2019-01-03T17:31:50.962Z,75.23
2019-01-03T17:34:20.644Z,75.43
2019-01-03T17:36:51.965Z,75.64
2019-01-03T17:39:21.609Z,75.69
2019-01-03T17:41:51.298Z,75.88
2019-01-03T17:44:21.014Z,76.02
2019-01-03T17:46:50.735Z,76.11
2019-01-03T17:49:20.402Z,76.21
2019-01-03T17:51:50.145Z,76.35
2019-01-03T17:54:23.109Z,76.53
2019-01-03T17:56:52.953Z,76.79
2019-01-03T17:59:22.627Z,76.96
2019-01-03T18:01:52.388Z,77.04
2019-01-03T18:04:22.062Z,77.02
2019-01-03T18:06:51.989Z,77.11
2019-01-03T18:09:22.962Z,77.05
2019-01-03T18:11:52.712Z,77.24
2019-01-03T18:14:22.379Z,77.41
2019-01-03T18:16:52.272Z,77.44
2019-01-03T18:19:21.930Z,77.30
2019-01-03T18:21:51.603Z,77.21
2019-01-03T18:24:21.271Z,77.09
2019-01-03T18:26:52.967Z,76.95
2019-01-03T18:29:22.628Z,77.13
2019-01-03T18:31:56.719Z,77.44
2019-01-03T18:34:26.374Z,77.64
2019-01-03T18:36:56.080Z,77.58
2019-01-03T18:39:25.709Z,77.74
2019-01-03T18:41:55.623Z,77.75
2019-01-03T18:44:25.309Z,77.74
2019-01-03T18:46:54.984Z,77.93
2019-01-03T18:49:24.920Z,77.90
2019-01-03T18:51:54.592Z,77.83
2019-01-03T18:54:25.524Z,77.91
2019-01-03T18:56:55.210Z,78.42
2019-01-03T18:59:26.022Z,78.53
2019-01-03T19:01:55.708Z,78.37
2019-01-03T19:04:27.138Z,78.44
2019-01-03T19:06:56.811Z,78.56
2019-01-03T19:09:26.477Z,78.75
2019-01-03T19:11:56.187Z,78.63
2019-01-03T19:14:25.860Z,78.61
2019-01-03T19:16:55.524Z,78.67
2019-01-03T19:19:25.192Z,78.79
2019-01-03T19:21:54.851Z,79.01
2019-01-03T19:24:24.527Z,78.93
2019-01-03T19:26:55.556Z,79.00
2019-01-03T19:29:25.234Z,79.22
2019-01-03T19:31:54.907Z,79.46
2019-01-03T19:34:26.643Z,79.75
2019-01-03T19:36:56.331Z,79.68
2019-01-03T19:39:26.025Z,79.75
2019-01-03T19:41:55.703Z,79.87
2019-01-03T19:44:25.400Z,79.92
2019-01-03T19:46:55.290Z,80.00
2019-01-03T19:49:24.994Z,79.96
2019-01-03T19:51:54.669Z,80.07
2019-01-03T19:54:24.844Z,80.07
2019-01-03T19:56:54.524Z,80.20
2019-01-03T19:59:24.198Z,80.14
2019-01-03T20:01:53.881Z,80.14
2019-01-03T20:04:24.066Z,80.23
2019-01-03T20:06:53.748Z,80.12
2019-01-03T20:09:23.488Z,79.94
2019-01-03T20:11:54.841Z,79.97
2019-01-03T20:14:24.505Z,80.23
2019-01-03T20:16:54.183Z,80.21
2019-01-03T20:19:30.887Z,80.40
2019-01-03T20:22:00.561Z,80.40
2019-01-03T20:24:31.885Z,80.30
2019-01-03T20:27:03.684Z,80.37
2019-01-03T20:29:39.279Z,80.46
2019-01-03T20:32:10.501Z,80.46
2019-01-03T20:34:41.268Z,80.52
2019-01-03T20:37:11.036Z,80.63
2019-01-03T20:39:40.734Z,80.89
2019-01-03T20:42:10.404Z,81.03
2019-01-03T20:44:40.709Z,81.03
2019-01-03T20:47:14.145Z,80.96
2019-01-03T20:49:47.358Z,81.03
2019-01-03T20:52:17.030Z,81.22
2019-01-03T20:54:46.712Z,81.20
2019-01-03T20:57:16.539Z,81.10
2019-01-03T20:59:46.528Z,81.34
2019-01-03T21:02:16.445Z,81.51
2019-01-03T21:04:46.205Z,81.69
2019-01-03T21:07:15.888Z,81.63
2019-01-03T21:09:45.568Z,81.66
2019-01-03T21:12:15.271Z,81.63
2019-01-03T21:14:45.077Z,81.75
2019-01-03T21:17:14.827Z,81.73
2019-01-03T21:19:44.490Z,81.86
2019-01-03T21:22:14.466Z,81.80
2019-01-03T21:24:44.224Z,81.63
2019-01-03T21:27:13.966Z,81.54
2019-01-03T21:29:43.713Z,81.55
2019-01-03T21:32:13.462Z,81.51
2019-01-03T21:34:43.132Z,81.34
2019-01-03T21:37:12.809Z,81.28
2019-01-03T21:39:42.461Z,81.05
2019-01-03T21:42:12.138Z,81.11
2019-01-03T21:44:41.812Z,81.25
2019-01-03T21:47:11.625Z,81.17
2019-01-03T21:49:41.293Z,81.22
2019-01-03T21:52:11.049Z,81.30
2019-01-03T21:54:40.968Z,81.22
2019-01-03T21:57:10.632Z,81.40
2019-01-03T21:59:40.790Z,81.47
2019-01-03T22:02:10.723Z,81.54
2019-01-03T22:04:40.373Z,81.64
2019-01-03T22:07:10.061Z,81.65
2019-01-03T22:09:39.762Z,81.64
2019-01-03T22:12:09.446Z,81.75
2019-01-03T22:14:39.126Z,81.73
2019-01-03T22:17:08.805Z,81.64
2019-01-03T22:19:38.718Z,81.54
2019-01-03T22:22:08.388Z,81.52
2019-01-03T22:24:38.069Z,81.23
2019-01-03T22:27:07.988Z,81.04
2019-01-03T22:29:37.681Z,81.08
2019-01-03T22:32:07.368Z,81.06
2019-01-03T22:34:37.057Z,81.19
2019-01-03T22:37:06.747Z,81.08
2019-01-03T22:39:36.415Z,80.98
2019-01-03T22:42:06.157Z,80.98
2019-01-03T22:44:36.079Z,81.05
2019-01-03T22:47:05.753Z,81.17
2019-01-03T22:49:35.444Z,80.96
2019-01-03T22:52:05.372Z,80.67
2019-01-03T22:54:35.115Z,80.36
2019-01-03T22:57:05.332Z,80.12
2019-01-03T22:59:35.008Z,79.93
2019-01-03T23:02:05.322Z,79.78
2019-01-03T23:04:35.143Z,79.63
2019-01-03T23:07:05.262Z,79.39
2019-01-03T23:09:35.185Z,79.22
2019-01-03T23:12:05.507Z,79.06
2019-01-03T23:14:35.249Z,78.93
2019-01-03T23:17:05.417Z,78.94
2019-01-03T23:19:35.089Z,78.86
2019-01-03T23:22:05.195Z,78.80
2019-01-03T23:24:34.859Z,78.80
2019-01-03T23:27:04.537Z,78.68
2019-01-03T23:29:35.500Z,78.63
2019-01-03T23:32:05.933Z,78.67
2019-01-03T23:34:35.600Z,78.74
2019-01-03T23:37:05.583Z,78.74
2019-01-03T23:39:35.252Z,78.71
2019-01-03T23:42:05.527Z,78.72
2019-01-03T23:44:35.208Z,78.69
2019-01-03T23:47:05.371Z,78.64
2019-01-03T23:49:35.061Z,78.71
2019-01-03T23:52:05.219Z,78.66
2019-01-03T23:54:35.852Z,78.69
2019-01-03T23:57:05.502Z,78.59
2019-01-03T23:59:35.188Z,78.48
